Time;durP1;ratioP1;P1;durP2;ratioP2;P2;SDS_P1;SDS_P2;PMS_P1;PMS_P2;Temp;Humidity;BMP_temperature;BMP_pressure;BME280_temperature;BME280_humidity;BME280_pressure;Samples;Min_cycle;Max_cycle;Signal;HPM_P1;HPM_P2
2021/11/02 00:00:22;;;;;;;;;;;;;;;21.98;53.22;100360.16;2091895;28;1174;-56
2021/11/02 00:01:25;;;;;;;;;;;;;;;21.96;52.25;100362.06;2091988;28;981;-56
2021/11/02 00:02:25;;;;;;;;;;;;;;;21.99;52.75;100359.22;2091988;28;784;-56
2021/11/02 00:03:25;;;;;;;;;;;;;;;21.97;53.60;100362.94;2092078;28;881;-56
2021/11/02 00:04:26;;;;;;;;;;;;;;;21.96;53.17;100358.50;2092009;28;1048;-57
2021/11/02 00:05:26;;;;;;;;;;;;;;;21.94;52.16;100358.56;2091641;28;843;-56
2021/11/02 00:06:26;;;;;;;;;;;;;;;21.92;51.89;100352.34;2091968;28;1017;-56
2021/11/02 00:07:27;;;;;;;;;;;;;;;21.91;52.52;100353.31;2091985;28;848;-56
2021/11/02 00:08:27;;;;;;;;;;;;;;;21.99;52.72;100350.25;2091976;28;982;-56
2021/11/02 00:09:29;;;;;;;;;;;;;;;21.94;52.07;100346.91;2091913;28;1906;-56
2021/11/02 00:10:29;;;;;;;;;;;;;;;21.88;53.44;100353.44;2091816;28;858;-57
2021/11/02 00:11:30;;;;;;;;;;;;;;;21.88;53.12;100354.34;2091925;28;784;-56
2021/11/02 00:12:30;;;;;;;;;;;;;;;21.92;52.53;100352.34;2091922;28;760;-56
2021/11/02 00:13:34;;;;;;;;;;;;;;;21.92;52.39;100355.94;2091503;28;823;-56
2021/11/02 00:14:34;;;;;;;;;;;;;;;21.92;51.75;100355.94;2091875;28;823;-57
2021/11/02 00:15:36;;;;;;;;;;;;;;;21.86;54.01;100352.63;2091897;28;997;-55
2021/11/02 00:16:36;;;;;;;;;;;;;;;21.86;53.04;100356.22;2091839;28;854;-57
2021/11/02 00:17:38;;;;;;;;;;;;;;;21.93;51.14;100354.09;2091877;28;815;-56
2021/11/02 00:18:44;;;;;;;;;;;;;;;21.92;53.79;100352.34;2091734;28;855;-56
2021/11/02 00:19:46;;;;;;;;;;;;;;;21.84;52.30;100349.13;2091877;28;815;-56
2021/11/02 00:20:46;;;;;;;;;;;;;;;21.85;51.87;100358.97;2091869;28;787;-57
2021/11/02 00:21:48;;;;;;;;;;;;;;;21.83;54.13;100353.66;2091859;28;977;-56
2021/11/02 00:22:56;;;;;;;;;;;;;;;21.89;52.09;100358.78;2091829;28;843;-57
2021/11/02 00:24:12;;;;;;;;;;;;;;;21.87;52.27;100360.66;2091889;28;851;-57
2021/11/02 00:25:12;;;;;;;;;;;;;;;21.85;52.67;100362.56;2091684;28;870;-56
2021/11/02 00:26:13;;;;;;;;;;;;;;;21.81;52.08;100363.66;2091753;28;977;-57
2021/11/02 00:27:13;;;;;;;;;;;;;;;21.85;52.42;100356.28;2082910;28;1021;-56
2021/11/02 00:28:13;;;;;;;;;;;;;;;21.91;52.91;100359.59;2083021;28;854;-57
2021/11/02 00:29:13;;;;;;;;;;;;;;;21.89;52.47;100355.19;2091711;28;1894;-57
2021/11/02 00:30:14;;;;;;;;;;;;;;;21.87;52.60;100355.28;2091753;28;780;-56
2021/11/02 00:31:14;;;;;;;;;;;;;;;21.86;52.90;100366.13;2091733;28;804;-56
2021/11/02 00:32:15;;;;;;;;;;;;;;;21.84;52.99;100366.22;2082740;28;1165;-56
2021/11/02 00:33:15;;;;;;;;;;;;;;;21.81;53.23;100366.34;2083031;28;945;-56
2021/11/02 00:34:15;;;;;;;;;;;;;;;21.82;53.81;100369.91;2091763;28;842;-56
2021/11/02 00:35:15;;;;;;;;;;;;;;;21.85;52.42;100367.94;2091732;28;844;-57
2021/11/02 00:36:15;;;;;;;;;;;;;;;21.85;51.99;100370.66;2091702;28;875;-56
2021/11/02 00:37:16;;;;;;;;;;;;;;;21.84;52.20;100360.81;2091682;28;965;-56
2021/11/02 00:38:16;;;;;;;;;;;;;;;21.86;52.61;100352.63;2091650;28;1534;-57
2021/11/02 00:39:16;;;;;;;;;;;;;;;21.82;53.30;100359.13;2091737;28;1351;-56
2021/11/02 00:40:17;;;;;;;;;;;;;;;21.84;52.87;100355.41;2091690;28;767;-56
2021/11/02 00:41:17;;;;;;;;;;;;;;;21.82;52.10;100346.53;2091754;28;985;-57
2021/11/02 00:42:18;;;;;;;;;;;;;;;21.83;52.74;100345.56;2091541;28;862;-56
2021/11/02 00:43:18;;;;;;;;;;;;;;;21.81;53.04;100347.47;2091777;28;798;-56
2021/11/02 00:44:21;;;;;;;;;;;;;;;21.82;52.18;100349.22;2091590;28;873;-56
2021/11/02 00:45:34;;;;;;;;;;;;;;;21.86;51.27;100350.84;2091362;28;870;-56
2021/11/02 00:46:34;;;;;;;;;;;;;;;21.87;51.29;100354.38;2091718;28;1219;-56
2021/11/02 00:47:35;;;;;;;;;;;;;;;21.90;51.21;100360.53;2091501;28;852;-56
2021/11/02 00:48:35;;;;;;;;;;;;;;;21.85;54.28;100362.56;2091594;28;1158;-56
2021/11/02 00:49:38;;;;;;;;;;;;;;;21.80;51.84;100356.50;2091644;28;1894;-56
2021/11/02 00:50:40;;;;;;;;;;;;;;;21.77;52.38;100360.22;2091643;28;776;-56
2021/11/02 00:51:40;;;;;;;;;;;;;;;21.77;51.93;100357.53;2091649;28;874;-56
2021/11/02 00:52:40;;;;;;;;;;;;;;;21.75;52.84;100361.22;2091537;28;992;-56
2021/11/02 00:53:41;;;;;;;;;;;;;;;21.76;53.21;100361.19;2091635;28;783;-56
2021/11/02 00:54:41;;;;;;;;;;;;;;;21.79;52.26;100360.16;2091400;28;1032;-56
2021/11/02 00:55:41;;;;;;;;;;;;;;;21.73;52.64;100358.63;2090841;28;1048;-56
2021/11/02 00:56:42;;;;;;;;;;;;;;;21.68;54.55;100363.34;2091440;28;1224;-56
2021/11/02 00:57:43;;;;;;;;;;;;;;;21.72;52.86;100362.25;2091609;28;889;-56
2021/11/02 00:58:43;;;;;;;;;;;;;;;21.70;53.06;100364.16;2091639;28;852;-56
2021/11/02 00:59:44;;;;;;;;;;;;;;;21.68;53.40;100368.75;2091581;28;973;-57
2021/11/02 01:00:44;;;;;;;;;;;;;;;21.70;52.85;100366.84;2091397;28;823;-56
2021/11/02 01:01:45;;;;;;;;;;;;;;;21.79;51.68;100364.66;2091572;28;775;-56
2021/11/02 01:02:45;;;;;;;;;;;;;;;21.77;51.72;100362.03;2099215;28;1025;-56
2021/11/02 01:03:46;;;;;;;;;;;;;;;21.76;52.42;100362.97;2099224;28;787;-56
2021/11/02 01:04:46;;;;;;;;;;;;;;;21.73;51.92;100365.81;2091596;28;955;-55
2021/11/02 01:05:46;;;;;;;;;;;;;;;21.70;53.37;100363.25;2091445;28;1040;-56
2021/11/02 01:06:46;;;;;;;;;;;;;;;21.73;53.12;100363.13;2091401;28;819;-56
2021/11/02 01:07:47;;;;;;;;;;;;;;;21.82;52.84;100364.50;2091655;28;1007;-55
2021/11/02 01:08:47;;;;;;;;;;;;;;;21.81;52.30;100362.75;2091530;28;831;-56
2021/11/02 01:09:47;;;;;;;;;;;;;;;21.75;51.80;100354.03;2091475;28;1914;-56
2021/11/02 01:10:48;;;;;;;;;;;;;;;21.75;51.79;100362.13;2099045;28;1240;-56
2021/11/02 01:11:48;;;;;;;;;;;;;;;21.75;52.27;100361.22;2099259;28;956;-57
2021/11/02 01:12:50;;;;;;;;;;;;;;;21.68;53.62;100355.25;2091537;28;831;-56
2021/11/02 01:13:50;;;;;;;;;;;;;;;21.76;52.25;100361.19;2091404;28;985;-56
2021/11/02 01:14:50;;;;;;;;;;;;;;;21.73;53.12;100358.63;2091438;28;795;-56
2021/11/02 01:15:50;;;;;;;;;;;;;;;21.76;51.24;100368.38;2091479;28;957;-56
2021/11/02 01:16:51;;;;;;;;;;;;;;;21.74;52.36;100363.06;2091178;28;977;-56
2021/11/02 01:17:51;;;;;;;;;;;;;;;21.76;53.23;100360.28;2091557;28;772;-57
2021/11/02 01:18:52;;;;;;;;;;;;;;;21.76;51.52;100354.91;2091420;28;1036;-56
2021/11/02 01:19:52;;;;;;;;;;;;;;;21.70;54.35;100358.75;2091428;28;1238;-57
2021/11/02 01:20:52;;;;;;;;;;;;;;;21.70;53.12;100353.38;2091412;28;981;-56
2021/11/02 01:21:52;;;;;;;;;;;;;;;21.69;52.62;100353.41;2091426;28;842;-56
2021/11/02 01:22:53;;;;;;;;;;;;;;;21.72;52.01;100355.97;2091355;28;867;-56
2021/11/02 01:23:53;;;;;;;;;;;;;;;21.70;51.86;100350.69;2091527;28;811;-57
2021/11/02 01:24:53;;;;;;;;;;;;;;;21.75;51.55;100345.06;2091408;28;763;-56
2021/11/02 01:25:54;;;;;;;;;;;;;;;21.73;51.88;100360.44;2091505;28;851;-56
2021/11/02 01:26:54;;;;;;;;;;;;;;;21.67;53.12;100356.19;2091438;28;901;-56
2021/11/02 01:27:54;;;;;;;;;;;;;;;21.73;52.60;100355.03;2091349;28;977;-56
2021/11/02 01:28:54;;;;;;;;;;;;;;;21.74;51.84;100356.78;2091417;28;756;-56
2021/11/02 01:29:55;;;;;;;;;;;;;;;21.71;53.37;100362.31;2091399;28;1889;-56
2021/11/02 01:30:55;;;;;;;;;;;;;;;21.70;51.49;100353.38;2091438;28;869;-55
2021/11/02 01:31:55;;;;;;;;;;;;;;;21.72;52.27;100351.47;2091392;28;862;-56
2021/11/02 01:32:55;;;;;;;;;;;;;;;21.71;52.33;100352.44;2091420;28;1040;-56
2021/11/02 01:33:56;;;;;;;;;;;;;;;21.70;52.01;100356.06;2091431;28;791;-55
2021/11/02 01:34:56;;;;;;;;;;;;;;;21.67;51.19;100349.91;2091368;28;764;-56
2021/11/02 01:35:56;;;;;;;;;;;;;;;21.68;53.02;100352.56;2091474;28;819;-56
2021/11/02 01:36:56;;;;;;;;;;;;;;;21.61;53.21;100357.31;2091400;28;851;-55
2021/11/02 01:37:57;;;;;;;;;;;;;;;21.65;52.12;100357.19;2091439;28;1437;-56
2021/11/02 01:38:57;;;;;;;;;;;;;;;21.68;52.67;100352.56;2091381;28;830;-56
2021/11/02 01:39:59;;;;;;;;;;;;;;;21.72;52.92;100356.88;2091405;28;822;-55
2021/11/02 01:40:59;;;;;;;;;;;;;;;21.73;52.73;100355.94;2091425;28;803;-57
2021/11/02 01:42:01;;;;;;;;;;;;;;;21.71;52.12;100352.44;2091395;28;903;-56
2021/11/02 01:43:01;;;;;;;;;;;;;;;21.69;52.22;100354.31;2091320;28;905;-56
2021/11/02 01:44:03;;;;;;;;;;;;;;;21.67;52.52;100350.81;2091421;28;783;-56
2021/11/02 01:45:05;;;;;;;;;;;;;;;21.68;52.74;100355.25;2091295;28;823;-57
2021/11/02 01:46:19;;;;;;;;;;;;;;;21.72;52.41;100350.59;2091368;28;783;-55
2021/11/02 01:47:20;;;;;;;;;;;;;;;21.71;51.51;100349.72;2091229;28;1028;-56
2021/11/02 01:48:22;;;;;;;;;;;;;;;21.70;51.64;100356.06;2082481;28;871;-57
2021/11/02 01:49:23;;;;;;;;;;;;;;;21.71;52.59;100352.44;2082745;28;1910;-56
2021/11/02 01:50:23;;;;;;;;;;;;;;;21.71;52.81;100352.44;2091250;28;854;-56
2021/11/02 01:51:25;;;;;;;;;;;;;;;21.67;53.59;100353.50;2091413;28;823;-56
2021/11/02 01:52:25;;;;;;;;;;;;;;;21.66;52.64;100346.38;2091289;28;974;-56
2021/11/02 01:53:25;;;;;;;;;;;;;;;21.66;53.61;100349.06;2091222;28;807;-57
2021/11/02 01:54:25;;;;;;;;;;;;;;;21.64;53.69;100348.25;2091336;28;773;-56
2021/11/02 01:55:26;;;;;;;;;;;;;;;21.64;52.25;100353.66;2091315;28;838;-55
2021/11/02 01:56:26;;;;;;;;;;;;;;;21.62;52.64;100351.00;2091116;28;1217;-56
2021/11/02 01:57:27;;;;;;;;;;;;;;;21.66;52.20;100351.75;2091394;28;985;-56
2021/11/02 01:58:27;;;;;;;;;;;;;;;21.65;51.39;100346.41;2090968;28;874;-55
2021/11/02 01:59:30;;;;;;;;;;;;;;;21.69;53.17;100346.22;2091271;28;887;-56
2021/11/02 02:00:30;;;;;;;;;;;;;;;21.62;53.55;100351.00;2090588;28;1687;-56
2021/11/02 02:01:34;;;;;;;;;;;;;;;21.65;52.64;100357.19;2090940;28;819;-55
2021/11/02 02:02:40;;;;;;;;;;;;;;;21.65;52.49;100357.19;2091278;28;799;-56
2021/11/02 02:03:48;;;;;;;;;;;;;;;21.64;52.45;100358.16;2091333;28;1016;-57
2021/11/02 02:05:12;;;;;;;;;;;;;;;21.67;52.05;100350.81;2091077;28;981;-55
2021/11/02 02:06:34;;;;;;;;;;;;;;;21.67;52.28;100350.81;2091285;28;1025;-56
2021/11/02 02:07:46;;;;;;;;;;;;;;;21.70;52.55;100347.97;2092951;28;799;-56
2021/11/02 02:09:07;;;;;;;;;;;;;;;21.64;52.20;100347.38;2092935;28;974;-56
2021/11/02 02:10:08;;;;;;;;;;;;;;;21.66;52.63;100338.28;2092931;28;710;-56
2021/11/02 02:11:21;;;;;;;;;;;;;;;21.68;51.71;100336.38;2092913;28;819;-55
2021/11/02 02:12:27;;;;;;;;;;;;;;;21.69;51.58;100330.06;2092885;28;947;-56
2021/11/02 02:13:33;;;;;;;;;;;;;;;21.67;51.82;100342.72;2092859;28;823;-56
2021/11/02 02:14:46;;;;;;;;;;;;;;;21.62;52.24;100336.66;2092924;28;807;-56
2021/11/02 02:15:50;;;;;;;;;;;;;;;21.68;53.88;100343.59;2092879;28;776;-56
2021/11/02 02:16:51;;;;;;;;;;;;;;;21.66;52.97;100338.28;2092875;28;779;-56
2021/11/02 02:17:57;;;;;;;;;;;;;;;21.62;52.33;100339.38;2092746;28;835;-57
2021/11/02 02:19:06;;;;;;;;;;;;;;;21.65;53.12;100341.03;2092870;28;920;-56
2021/11/02 02:20:09;;;;;;;;;;;;;;;21.55;53.36;100343.25;2092841;28;989;-56
2021/11/02 02:21:28;;;;;;;;;;;;;;;21.60;53.20;100341.22;2092492;28;843;-56
2021/11/02 02:22:46;;;;;;;;;;;;;;;21.61;52.55;100334.88;2092828;28;962;-57
2021/11/02 02:23:47;;;;;;;;;;;;;;;21.55;51.87;100330.63;2092832;28;890;-55
2021/11/02 02:24:53;;;;;;;;;;;;;;;21.57;52.21;100335.97;2092754;28;795;-56
2021/11/02 02:25:58;;;;;;;;;;;;;;;21.64;52.35;100333.88;2092783;28;1032;-56
2021/11/02 02:27:19;;;;;;;;;;;;;;;21.63;52.95;100333.03;2092765;28;835;-55
2021/11/02 02:28:20;;;;;;;;;;;;;;;21.68;51.67;100330.09;2092847;28;784;-56
2021/11/02 02:29:21;;;;;;;;;;;;;;;21.68;51.17;100325.59;2092698;28;1902;-56
2021/11/02 02:30:22;;;;;;;;;;;;;;;21.68;52.63;100332.81;2092746;28;771;-55
2021/11/02 02:31:23;;;;;;;;;;;;;;;21.61;52.48;100330.34;2092748;28;1474;-56
2021/11/02 02:32:26;;;;;;;;;;;;;;;21.55;53.25;100324.38;2092674;28;984;-56
2021/11/02 02:33:30;;;;;;;;;;;;;;;21.64;52.21;100320.41;2092750;28;846;-55
2021/11/02 02:34:31;;;;;;;;;;;;;;;21.61;53.14;100321.41;2092748;28;799;-56
2021/11/02 02:35:31;;;;;;;;;;;;;;;21.52;52.35;100319.13;2092753;28;795;-56
2021/11/02 02:36:32;;;;;;;;;;;;;;;21.58;53.32;100317.00;2092516;28;950;-55
2021/11/02 02:37:33;;;;;;;;;;;;;;;21.61;52.81;100316.03;2092662;28;1412;-56
2021/11/02 02:38:35;;;;;;;;;;;;;;;21.67;52.59;100323.84;2092617;28;1045;-56
2021/11/02 02:39:35;;;;;;;;;;;;;;;21.66;52.93;100319.41;2092619;28;996;-55
2021/11/02 02:40:37;;;;;;;;;;;;;;;21.65;52.73;100328.44;2092686;28;808;-56
2021/11/02 02:41:38;;;;;;;;;;;;;;;21.55;53.08;100321.69;2092666;28;894;-56
2021/11/02 02:42:38;;;;;;;;;;;;;;;21.64;51.46;100324.00;2092562;28;1428;-55
2021/11/02 02:43:41;;;;;;;;;;;;;;;21.59;51.80;100317.91;2092664;28;834;-56
2021/11/02 02:44:41;;;;;;;;;;;;;;;21.61;52.61;100311.47;2092502;28;897;-57
2021/11/02 02:45:43;;;;;;;;;;;;;;;21.60;52.17;100309.72;2092536;28;779;-55
2021/11/02 02:46:43;;;;;;;;;;;;;;;21.49;54.37;100309.34;2092584;28;997;-56
2021/11/02 02:47:44;;;;;;;;;;;;;;;21.56;52.39;100312.66;2092591;28;981;-56
2021/11/02 02:48:46;;;;;;;;;;;;;;;21.61;51.72;100318.72;2092614;28;919;-55
2021/11/02 02:49:47;;;;;;;;;;;;;;;21.61;52.67;100311.47;2092575;28;1894;-56
2021/11/02 02:50:48;;;;;;;;;;;;;;;21.60;51.80;100317.81;2092509;28;771;-56
2021/11/02 02:51:49;;;;;;;;;;;;;;;21.56;52.98;100318.03;2092587;28;768;-55
2021/11/02 02:52:51;;;;;;;;;;;;;;;21.61;52.64;100321.41;2092592;28;1032;-56
2021/11/02 02:53:52;;;;;;;;;;;;;;;21.62;51.88;100323.19;2092598;28;769;-56
2021/11/02 02:54:54;;;;;;;;;;;;;;;21.59;52.60;100318.75;2092514;28;1067;-55
2021/11/02 02:55:58;;;;;;;;;;;;;;;21.60;51.67;100322.34;2092352;28;857;-56
2021/11/02 02:56:59;;;;;;;;;;;;;;;21.67;53.22;100322.97;2092429;28;1168;-56
2021/11/02 02:58:00;;;;;;;;;;;;;;;21.62;52.19;100321.34;2092505;28;874;-55
2021/11/02 02:59:02;;;;;;;;;;;;;;;21.62;52.09;100318.66;2092543;28;1049;-55
2021/11/02 03:00:05;;;;;;;;;;;;;;;21.61;52.49;100321.41;2092555;28;874;-56
2021/11/02 03:01:06;;;;;;;;;;;;;;;21.61;52.12;100316.03;2092453;28;994;-56
2021/11/02 03:02:11;;;;;;;;;;;;;;;21.60;55.18;100316.97;2092514;28;811;-56
2021/11/02 03:03:12;;;;;;;;;;;;;;;21.51;53.15;100320.06;2092528;28;823;-56
2021/11/02 03:04:15;;;;;;;;;;;;;;;21.52;53.15;100314.59;2092429;28;1024;-56
2021/11/02 03:05:18;;;;;;;;;;;;;;;21.53;53.11;100323.56;2092504;28;823;-55
2021/11/02 03:06:19;;;;;;;;;;;;;;;21.59;52.58;100320.59;2092193;28;874;-56
2021/11/02 03:07:21;;;;;;;;;;;;;;;21.61;52.75;100318.72;2092495;28;858;-56
2021/11/02 03:08:21;;;;;;;;;;;;;;;21.58;52.42;100322.41;2092395;28;771;-55
2021/11/02 03:09:21;;;;;;;;;;;;;;;21.56;53.68;100326.13;2092346;28;1979;-56
2021/11/02 03:10:22;;;;;;;;;;;;;;;21.61;52.84;100321.41;2092383;28;847;-56
2021/11/02 03:11:24;;;;;;;;;;;;;;;21.66;53.02;100319.41;2092230;28;1259;-55
2021/11/02 03:12:25;;;;;;;;;;;;;;;21.67;52.87;100333.75;2092430;28;1040;-56
2021/11/02 03:13:29;;;;;;;;;;;;;;;21.66;52.67;100319.41;2092512;28;791;-56
2021/11/02 03:14:38;;;;;;;;;;;;;;;21.50;53.91;100329.09;2092347;28;822;-55
2021/11/02 03:15:49;;;;;;;;;;;;;;;21.57;53.05;100334.13;2092486;28;810;-56
2021/11/02 03:17:05;;;;;;;;;;;;;;;21.55;52.77;100338.72;2092337;28;918;-56
2021/11/02 03:20:15;;;;;;;;;;;;;;;21.50;53.66;100337.19;2066858;28;1184;-56
2021/11/02 03:49:24;;;;;;;;;;;;;;;21.58;53.06;100341.28;2066695;28;1214;-56
2021/11/02 03:55:09;;;;;;;;;;;;;;;21.55;52.37;100351.34;2066691;28;780;-56
2021/11/02 03:56:40;;;;;;;;;;;;;;;21.53;53.32;100355.91;2066647;28;822;-56
2021/11/02 03:57:55;;;;;;;;;;;;;;;21.51;53.60;100364.06;2079246;28;942;-56
2021/11/02 04:00:16;;;;;;;;;;;;;;;21.54;53.36;100358.53;2082668;28;938;-55
2021/11/02 04:01:35;;;;;;;;;;;;;;;21.53;53.81;100359.47;2082986;28;875;-56
2021/11/02 04:28:11;;;;;;;;;;;;;;;23.67;53.26;100322.03;2050175;29;1003;-57
2021/11/02 04:42:48;;;;;;;;;;;;;;;23.92;49.55;100306.28;2050181;29;768;-55
2021/11/02 04:46:25;;;;;;;;;;;;;;;23.92;50.69;100292.75;2050339;29;785;-56
2021/11/02 04:47:56;;;;;;;;;;;;;;;23.94;50.08;100293.53;2050621;28;1078;-56
2021/11/02 05:20:29;;;;;;;;;;;;;;;24.34;49.24;100275.03;2018705;29;1112;-55
2021/11/02 05:49:17;;;;;;;;;;;;;;;24.60;47.12;100286.19;2033556;29;959;-59
2021/11/02 05:58:09;;;;;;;;;;;;;;;24.60;46.66;100283.47;2059593;28;749;-59
2021/11/02 06:00:19;;;;;;;;;;;;;;;24.59;45.99;100281.72;2059481;28;953;-59
2021/11/02 06:07:09;;;;;;;;;;;;;;;24.67;47.43;100267.72;2059529;28;1008;-59
2021/11/02 06:09:58;;;;;;;;;;;;;;;24.66;53.54;100271.38;2059520;28;1975;-59
2021/11/02 06:28:09;;;;;;;;;;;;;;;24.74;45.91;100279.06;2076389;28;647;-59
2021/11/02 06:29:10;;;;;;;;;;;;;;;24.75;46.99;100284.41;2076134;28;807;-59
2021/11/02 06:30:11;;;;;;;;;;;;;;;24.74;47.77;100277.25;2076309;28;1957;-58
2021/11/02 06:31:15;;;;;;;;;;;;;;;24.82;57.05;100285.81;2076249;28;792;-59
2021/11/02 06:32:28;;;;;;;;;;;;;;;24.76;48.90;100272.63;2076296;28;931;-59
2021/11/02 06:35:07;;;;;;;;;;;;;;;24.72;51.17;100276.47;2076432;28;830;-59
2021/11/02 06:37:38;;;;;;;;;;;;;;;24.81;45.64;100280.47;2076204;28;942;-60
2021/11/02 06:40:06;;;;;;;;;;;;;;;24.82;50.28;100282.19;2076259;28;811;-59
2021/11/02 06:42:47;;;;;;;;;;;;;;;24.75;53.11;100292.53;2076393;28;662;-58
2021/11/02 06:46:33;;;;;;;;;;;;;;;24.82;45.17;100282.19;2076294;28;662;-59
2021/11/02 06:49:11;;;;;;;;;;;;;;;24.85;54.68;100288.31;2076009;28;641;-58
2021/11/02 06:51:39;;;;;;;;;;;;;;;24.81;52.52;100286.75;2076271;28;886;-59
2021/11/02 06:59:33;;;;;;;;;;;;;;;24.89;52.62;100290.84;2092614;28;732;-59
2021/11/02 07:15:32;;;;;;;;;;;;;;;24.83;46.67;100286.66;2092459;28;657;-59
2021/11/02 07:18:05;;;;;;;;;;;;;;;24.83;49.03;100286.66;2050867;29;1231;-59
2021/11/02 07:19:12;;;;;;;;;;;;;;;24.81;54.72;100285.88;2050977;29;853;-59
2021/11/02 07:21:21;;;;;;;;;;;;;;;24.83;53.62;100287.53;2050935;29;904;-59
2021/11/02 07:23:35;;;;;;;;;;;;;;;24.83;51.53;100282.13;2050670;29;1052;-59
2021/11/02 07:24:42;;;;;;;;;;;;;;;24.83;47.47;100283.94;2050839;29;887;-58
2021/11/02 08:46:36;;;;;;;;;;;;;;;24.91;50.91;100314.16;2090831;28;814;-58
2021/11/02 08:47:45;;;;;;;;;;;;;;;24.91;51.59;100306.03;2091061;28;703;-59
2021/11/02 08:48:46;;;;;;;;;;;;;;;24.93;49.76;100314.09;2090750;28;823;-59
2021/11/02 08:49:47;;;;;;;;;;;;;;;24.90;48.86;100300.72;2090539;28;1951;-58
2021/11/02 08:50:54;;;;;;;;;;;;;;;24.89;51.26;100302.53;2090696;28;871;-59
2021/11/02 08:51:55;;;;;;;;;;;;;;;24.86;46.17;100295.50;2090754;28;868;-58
2021/11/02 08:52:57;;;;;;;;;;;;;;;24.90;47.40;100293.44;2090757;28;1024;-59
2021/11/02 08:53:57;;;;;;;;;;;;;;;24.90;50.58;100296.16;2090776;28;889;-59
2021/11/02 08:54:57;;;;;;;;;;;;;;;24.92;52.09;100294.22;2090402;28;851;-58
2021/11/02 08:55:58;;;;;;;;;;;;;;;24.98;51.60;100293.88;2090768;28;921;-59
2021/11/02 08:56:58;;;;;;;;;;;;;;;24.97;47.06;100296.69;2090490;28;1145;-59
2021/11/02 08:57:59;;;;;;;;;;;;;;;24.96;47.15;100293.09;2090488;28;865;-58
2021/11/02 08:58:59;;;;;;;;;;;;;;;24.95;55.13;100291.34;2090715;28;854;-59
2021/11/02 08:59:59;;;;;;;;;;;;;;;24.93;47.50;100290.56;2090724;28;838;-59
2021/11/02 09:01:00;;;;;;;;;;;;;;;24.92;49.42;100287.97;2090636;28;1144;-58
2021/11/02 09:02:02;;;;;;;;;;;;;;;24.92;51.76;100287.97;2090741;28;854;-59
2021/11/02 09:03:15;;;;;;;;;;;;;;;24.91;53.23;100288.91;2090331;28;926;-59
2021/11/02 09:04:17;;;;;;;;;;;;;;;24.89;50.19;100289.00;2083345;28;1030;-58
2021/11/02 09:05:23;;;;;;;;;;;;;;;24.99;48.75;100289.34;2083347;28;981;-59
2021/11/02 09:06:23;;;;;;;;;;;;;;;24.91;51.27;100288.91;2083284;28;993;-58
2021/11/02 09:07:27;;;;;;;;;;;;;;;24.93;46.59;100290.56;2083361;28;933;-59
2021/11/02 09:08:28;;;;;;;;;;;;;;;24.96;47.27;100287.66;2083251;28;902;-59
2021/11/02 09:09:40;;;;;;;;;;;;;;;24.94;52.31;100281.47;2083297;28;2017;-58
2021/11/02 09:10:41;;;;;;;;;;;;;;;24.93;48.15;100287.84;2083158;28;1315;-59
2021/11/02 09:11:43;;;;;;;;;;;;;;;24.95;50.79;100285.06;2083297;28;1157;-58
2021/11/02 09:12:44;;;;;;;;;;;;;;;24.94;51.86;100284.19;2083314;28;1166;-59
2021/11/02 09:13:47;;;;;;;;;;;;;;;24.92;46.40;100287.97;2083266;28;828;-59
2021/11/02 09:14:48;;;;;;;;;;;;;;;24.89;49.84;100283.56;2083281;28;761;-58
2021/11/02 09:15:50;;;;;;;;;;;;;;;24.88;52.14;100286.41;2082938;28;807;-59
2021/11/02 09:16:50;;;;;;;;;;;;;;;24.87;47.33;100285.50;2082558;28;843;-59
2021/11/02 09:17:51;;;;;;;;;;;;;;;24.91;45.99;100280.78;2083275;28;815;-58
2021/11/02 09:18:52;;;;;;;;;;;;;;;24.90;48.63;100281.75;2083160;28;1036;-59
2021/11/02 09:19:56;;;;;;;;;;;;;;;24.86;48.62;100283.75;2083265;28;850;-58
2021/11/02 09:20:57;;;;;;;;;;;;;;;24.95;47.13;100279.66;2083206;28;739;-58
2021/11/02 09:21:57;;;;;;;;;;;;;;;24.93;50.89;100279.72;2083096;28;1005;-59
2021/11/02 09:22:57;;;;;;;;;;;;;;;24.93;49.81;100285.13;2083263;28;824;-59
2021/11/02 09:24:00;;;;;;;;;;;;;;;24.98;49.35;100280.31;2083166;28;1045;-58
2021/11/02 09:25:01;;;;;;;;;;;;;;;24.85;47.18;100276.59;2083274;28;1073;-59
2021/11/02 09:26:02;;;;;;;;;;;;;;;24.94;50.82;100278.75;2083198;28;834;-59
2021/11/02 09:27:03;;;;;;;;;;;;;;;24.99;51.47;100278.50;2083192;28;902;-59
2021/11/02 09:28:03;;;;;;;;;;;;;;;24.97;55.38;100272.28;2083214;28;886;-59
2021/11/02 09:29:06;;;;;;;;;;;;;;;24.91;48.29;100278.94;2083089;28;783;-58
2021/11/02 09:30:08;;;;;;;;;;;;;;;24.89;47.83;100271.88;2088388;28;1894;-59
2021/11/02 09:31:08;;;;;;;;;;;;;;;24.89;52.94;100278.16;2091382;28;1110;-59
2021/11/02 09:32:08;;;;;;;;;;;;;;;24.92;47.87;100280.69;2091259;28;1039;-58
2021/11/02 09:33:09;;;;;;;;;;;;;;;24.94;48.56;100270.63;2091400;28;796;-59
2021/11/02 09:34:10;;;;;;;;;;;;;;;24.98;54.72;100282.16;2091393;28;836;-59
2021/11/02 09:35:11;;;;;;;;;;;;;;;24.96;49.02;100284.09;2091454;28;818;-58
2021/11/02 09:36:13;;;;;;;;;;;;;;;24.94;60.98;100286.88;2091386;28;957;-59
2021/11/02 09:37:25;;;;;;;;;;;;;;;24.93;50.38;100278.88;2091304;28;1748;-59
2021/11/02 09:38:27;;;;;;;;;;;;;;;24.90;47.79;100279.91;2083115;28;1389;-58
2021/11/02 09:39:30;;;;;;;;;;;;;;;24.91;49.72;100276.22;2083158;28;978;-59
2021/11/02 09:40:50;;;;;;;;;;;;;;;24.91;47.61;100276.22;2083170;28;911;-59
2021/11/02 09:41:54;;;;;;;;;;;;;;;24.94;49.31;100269.78;2083162;28;851;-59
2021/11/02 09:43:15;;;;;;;;;;;;;;;24.93;52.35;100268.88;2083124;28;922;-59
2021/11/02 09:44:17;;;;;;;;;;;;;;;24.92;47.53;100269.00;2083184;28;867;-58
2021/11/02 09:45:18;;;;;;;;;;;;;;;24.91;48.80;100275.38;2083055;28;943;-59
2021/11/02 09:46:36;;;;;;;;;;;;;;;24.93;49.44;100273.44;2083168;28;898;-59
2021/11/02 09:47:49;;;;;;;;;;;;;;;24.92;50.82;100272.56;2083416;28;1713;-58
2021/11/02 09:49:07;;;;;;;;;;;;;;;24.96;51.62;100274.13;2090622;28;1729;-59
2021/11/02 09:50:22;;;;;;;;;;;;;;;24.96;51.71;100273.25;2090929;28;1898;-58
2021/11/02 09:51:22;;;;;;;;;;;;;;;24.98;53.24;100296.56;2090862;28;1899;-59
2021/11/02 09:52:41;;;;;;;;;;;;;;;24.96;49.69;100287.66;2090852;28;1731;-58
2021/11/02 09:53:46;;;;;;;;;;;;;;;24.92;51.18;100294.22;2090735;28;1739;-58
2021/11/02 09:55:05;;;;;;;;;;;;;;;24.38;52.45;100292.84;2089969;28;1613;-62
2021/11/02 09:56:11;;;;;;;;;;;;;;;24.04;51.42;100289.38;2090969;28;1639;-59
2021/11/02 09:57:16;;;;;;;;;;;;;;;23.97;50.61;100296.94;2090854;28;1839;-59
2021/11/02 09:58:28;;;;;;;;;;;;;;;23.78;51.28;100290.81;2090808;28;1720;-58
2021/11/02 09:59:28;;;;;;;;;;;;;;;23.71;52.09;100289.41;2090099;28;1898;-58
2021/11/02 10:00:33;;;;;;;;;;;;;;;23.69;52.62;100289.47;2090533;28;1742;-58
2021/11/02 10:01:47;;;;;;;;;;;;;;;23.66;52.22;100292.34;2087304;28;1675;-58
2021/11/02 10:03:17;;;;;;;;;;;;;;;23.62;51.93;100293.47;2082980;28;807;-58
2021/11/02 10:04:31;;;;;;;;;;;;;;;23.56;51.24;100291.09;2061983;28;2215;-58
2021/11/02 10:05:48;;;;;;;;;;;;;;;23.54;50.78;100283.09;2065059;28;2207;-59
2021/11/02 10:07:03;;;;;;;;;;;;;;;23.53;51.45;100284.06;2058145;28;1944;-58
2021/11/02 10:08:05;;;;;;;;;;;;;;;23.45;51.16;100289.91;2058122;28;1926;-58
2021/11/02 10:09:08;;;;;;;;;;;;;;;23.46;52.55;100288.94;2059376;28;2238;-58
2021/11/02 10:10:12;;;;;;;;;;;;;;;23.51;50.94;100277.88;2058158;28;1915;-58
2021/11/02 10:11:31;;;;;;;;;;;;;;;23.49;50.32;100264.44;2057911;28;857;-58
2021/11/02 10:12:42;;;;;;;;;;;;;;;23.50;50.51;100274.31;2057835;28;915;-58
2021/11/02 10:13:49;;;;;;;;;;;;;;;23.51;50.87;100273.34;2057777;28;864;-58
2021/11/02 10:14:51;;;;;;;;;;;;;;;23.54;50.73;100273.19;2049566;29;1219;-59
2021/11/02 10:15:55;;;;;;;;;;;;;;;23.56;50.80;100274.88;2050077;28;971;-58
2021/11/02 10:17:01;;;;;;;;;;;;;;;23.54;50.43;100275.88;2057785;28;852;-57
2021/11/02 10:18:25;;;;;;;;;;;;;;;23.57;50.80;100276.63;2057766;28;894;-58
2021/11/02 10:19:44;;;;;;;;;;;;;;;23.59;49.54;100277.44;2050383;28;1305;-57
2021/11/02 10:21:02;;;;;;;;;;;;;;;23.59;50.52;100272.03;2057741;28;895;-58
2021/11/02 10:22:28;;;;;;;;;;;;;;;23.58;49.48;100270.28;2057841;28;1069;-58
2021/11/02 10:23:28;;;;;;;;;;;;;;;23.55;48.69;100268.63;2057825;28;910;-58